createdAt,value
2019-05-30T00:00:50.550Z,990.964
2019-05-30T00:02:50.579Z,990.947
2019-05-30T00:04:50.093Z,990.936
2019-05-30T00:06:50.491Z,990.953
2019-05-30T00:08:50.571Z,990.996
2019-05-30T00:10:49.606Z,990.996
2019-05-30T00:12:49.649Z,991.045
2019-05-30T00:14:49.700Z,991.050
2019-05-30T00:16:49.926Z,991.048
2019-05-30T00:18:50.041Z,991.070
2019-05-30T00:20:50.193Z,991.081
2019-05-30T00:22:50.329Z,991.094
2019-05-30T00:24:50.425Z,991.120
2019-05-30T00:26:49.750Z,991.143
2019-05-30T00:28:49.901Z,991.165
2019-05-30T00:30:49.934Z,991.165
2019-05-30T00:32:49.917Z,991.175
2019-05-30T00:34:50.502Z,991.181
2019-05-30T00:36:49.653Z,991.199
2019-05-30T00:38:49.773Z,991.225
2019-05-30T00:40:49.939Z,991.227
2019-05-30T00:42:50.013Z,991.236
2019-05-30T00:44:50.128Z,991.260
2019-05-30T00:46:50.444Z,991.263
2019-05-30T00:48:50.560Z,991.274
2019-05-30T00:50:49.779Z,991.282
2019-05-30T00:52:49.895Z,991.285
2019-05-30T00:54:50.201Z,991.278
2019-05-30T00:56:50.440Z,991.273
2019-05-30T00:58:50.483Z,991.234
2019-05-30T01:00:50.533Z,991.236
2019-05-30T01:02:49.832Z,991.239
2019-05-30T01:04:50.406Z,991.245
2019-05-30T01:06:50.511Z,991.249
2019-05-30T01:08:49.659Z,991.239
2019-05-30T01:10:49.740Z,991.224
2019-05-30T01:12:49.856Z,991.222
2019-05-30T01:14:50.022Z,991.223
2019-05-30T01:16:50.214Z,991.243
2019-05-30T01:18:50.378Z,991.243
2019-05-30T01:20:50.580Z,991.242
2019-05-30T01:22:49.808Z,991.251
2019-05-30T01:24:50.094Z,991.261
2019-05-30T01:26:50.533Z,991.286
2019-05-30T01:28:49.689Z,991.286
2019-05-30T01:31:09.951Z,991.301
2019-05-30T01:32:50.499Z,991.299
2019-05-30T01:34:50.175Z,991.293
2019-05-30T01:36:50.362Z,991.283
2019-05-30T01:38:50.528Z,991.270
2019-05-30T01:40:49.739Z,991.279
2019-05-30T01:42:49.892Z,991.274
2019-05-30T01:44:50.046Z,991.243
2019-05-30T01:46:50.286Z,991.250
2019-05-30T01:48:50.400Z,991.238
2019-05-30T01:50:50.365Z,991.230
2019-05-30T01:52:50.443Z,991.226
2019-05-30T01:54:50.478Z,991.225
2019-05-30T01:56:49.644Z,991.224
2019-05-30T01:58:49.676Z,991.242
2019-05-30T02:00:49.620Z,991.253
2019-05-30T02:02:49.759Z,991.277
2019-05-30T02:04:50.275Z,991.280
2019-05-30T02:06:50.493Z,991.271
2019-05-30T02:08:50.324Z,991.265
2019-05-30T02:10:50.442Z,991.256
2019-05-30T02:12:50.504Z,991.272
2019-05-30T02:14:49.703Z,991.272
2019-05-30T02:16:50.037Z,991.277
2019-05-30T02:18:50.261Z,991.317
2019-05-30T02:20:50.480Z,991.321
2019-05-30T02:22:50.486Z,991.330
2019-05-30T02:24:50.589Z,991.348
2019-05-30T02:26:49.855Z,991.372
2019-05-30T02:28:49.985Z,991.400
2019-05-30T02:30:50.146Z,991.400
2019-05-30T02:32:50.221Z,991.397
2019-05-30T02:34:49.910Z,991.389
2019-05-30T02:36:50.194Z,991.367
2019-05-30T02:38:50.321Z,991.357
2019-05-30T02:40:50.503Z,991.356
2019-05-30T02:42:50.587Z,991.363
2019-05-30T02:44:49.595Z,991.398
2019-05-30T02:46:49.899Z,991.405
2019-05-30T02:49:04.229Z,991.414
2019-05-30T02:50:49.655Z,991.424
2019-05-30T02:52:49.781Z,991.458
2019-05-30T02:54:49.930Z,991.475
2019-05-30T02:56:50.200Z,991.475
2019-05-30T02:58:50.257Z,991.456
2019-05-30T03:00:50.312Z,991.456
2019-05-30T03:02:50.383Z,991.451
2019-05-30T03:04:49.972Z,991.446
2019-05-30T03:06:50.243Z,991.451
2019-05-30T03:08:50.328Z,991.466
2019-05-30T03:10:50.457Z,991.470
2019-05-30T03:12:50.516Z,991.525
2019-05-30T03:14:49.738Z,991.542
2019-05-30T03:16:49.945Z,991.557
2019-05-30T03:18:50.113Z,991.554
2019-05-30T03:20:50.292Z,991.565
2019-05-30T03:22:50.332Z,991.578
2019-05-30T03:24:50.496Z,991.603
2019-05-30T03:26:49.671Z,991.610
2019-05-30T03:28:53.854Z,991.609
2019-05-30T03:30:50.149Z,991.608
2019-05-30T03:33:18.443Z,991.614
2019-05-30T03:34:50.215Z,991.624
2019-05-30T03:36:49.731Z,991.624
2019-05-30T03:38:49.872Z,991.668
2019-05-30T03:40:49.992Z,991.677
2019-05-30T03:42:50.088Z,991.685
2019-05-30T03:44:50.287Z,991.679
2019-05-30T03:46:50.506Z,991.683
2019-05-30T03:48:50.558Z,991.698
2019-05-30T03:50:49.671Z,991.678
2019-05-30T03:52:49.796Z,991.680
2019-05-30T03:54:49.959Z,991.683
2019-05-30T03:56:50.319Z,991.702
2019-05-30T03:58:50.451Z,991.711
2019-05-30T04:00:51.923Z,991.709
2019-05-30T04:02:59.643Z,991.736
2019-05-30T04:04:50.405Z,991.749
2019-05-30T04:06:50.482Z,991.748
2019-05-30T04:08:50.578Z,991.750
2019-05-30T04:10:49.765Z,991.740
2019-05-30T04:12:50.127Z,991.738
2019-05-30T04:14:50.306Z,991.746
2019-05-30T04:16:50.449Z,991.780
2019-05-30T04:18:50.522Z,991.808
2019-05-30T04:20:49.757Z,991.825
2019-05-30T04:22:49.851Z,991.824
2019-05-30T04:24:50.019Z,991.833
2019-05-30T04:26:50.472Z,991.837
2019-05-30T04:28:50.639Z,991.851
2019-05-30T04:30:49.717Z,991.865
2019-05-30T04:32:49.844Z,991.896
2019-05-30T04:34:50.346Z,991.925
2019-05-30T04:36:54.089Z,991.942
2019-05-30T04:38:50.231Z,991.968
2019-05-30T04:40:50.297Z,991.982
2019-05-30T04:42:50.428Z,991.999
2019-05-30T04:44:49.660Z,991.998
2019-05-30T04:46:50.033Z,992.010
2019-05-30T04:48:50.152Z,991.999
2019-05-30T04:50:50.221Z,992.006
2019-05-30T04:52:50.310Z,992.006
2019-05-30T04:54:50.418Z,992.014
2019-05-30T04:56:49.665Z,992.001
2019-05-30T04:58:49.759Z,991.986
2019-05-30T05:00:49.868Z,991.994
2019-05-30T05:02:49.942Z,992.005
2019-05-30T05:04:50.331Z,992.023
2019-05-30T05:06:49.718Z,992.049
2019-05-30T05:08:49.834Z,992.061
2019-05-30T05:10:49.955Z,992.069
2019-05-30T05:12:50.046Z,992.056
2019-05-30T05:14:50.131Z,992.046
2019-05-30T05:16:50.344Z,992.063
2019-05-30T05:18:50.442Z,992.062
2019-05-30T05:20:50.589Z,992.042
2019-05-30T05:22:49.679Z,992.054
2019-05-30T05:24:49.722Z,992.061
2019-05-30T05:26:49.930Z,992.050
2019-05-30T05:28:50.070Z,992.047
2019-05-30T05:30:50.115Z,992.047
2019-05-30T05:32:50.317Z,992.052
2019-05-30T05:34:52.428Z,992.071
2019-05-30T05:36:50.405Z,992.072
2019-05-30T05:38:50.503Z,992.076
2019-05-30T05:40:49.951Z,992.089
2019-05-30T05:42:50.090Z,992.094
2019-05-30T05:44:50.131Z,992.083
2019-05-30T05:46:50.449Z,992.088
2019-05-30T05:48:50.450Z,992.087
2019-05-30T05:50:50.492Z,992.087
2019-05-30T05:52:50.514Z,992.123
2019-05-30T05:54:49.613Z,992.141
2019-05-30T05:56:49.760Z,992.166
2019-05-30T05:58:49.866Z,992.186
2019-05-30T06:00:49.951Z,992.220
2019-05-30T06:02:49.959Z,992.215
2019-05-30T06:04:50.442Z,992.228
2019-05-30T06:06:49.645Z,992.220
2019-05-30T06:08:49.639Z,992.223
2019-05-30T06:10:49.722Z,992.231
2019-05-30T06:12:49.806Z,992.231
2019-05-30T06:14:49.931Z,992.241
2019-05-30T06:16:50.194Z,992.234
2019-05-30T06:18:50.380Z,992.218
2019-05-30T06:20:50.407Z,992.218
2019-05-30T06:22:50.566Z,992.228
2019-05-30T06:24:49.675Z,992.243
2019-05-30T06:26:49.933Z,992.250
2019-05-30T06:28:50.007Z,992.233
2019-05-30T06:30:50.038Z,992.233
2019-05-30T06:32:50.240Z,992.229
2019-05-30T06:34:49.912Z,992.238
2019-05-30T06:36:50.134Z,992.238
2019-05-30T06:38:50.299Z,992.252
2019-05-30T06:40:50.375Z,992.269
2019-05-30T06:42:50.461Z,992.266
2019-05-30T06:44:50.519Z,992.272
2019-05-30T06:46:49.722Z,992.256
2019-05-30T06:48:49.720Z,992.247
2019-05-30T06:50:49.811Z,992.253
2019-05-30T06:52:49.905Z,992.267
2019-05-30T06:54:49.948Z,992.259
2019-05-30T06:56:50.243Z,992.258
2019-05-30T06:58:50.262Z,992.254
2019-05-30T07:00:50.308Z,992.251
2019-05-30T07:02:50.629Z,992.257
2019-05-30T07:04:53.749Z,992.271
2019-05-30T07:06:50.877Z,992.281
2019-05-30T07:08:49.951Z,992.294
2019-05-30T07:10:50.039Z,992.298
2019-05-30T07:12:50.137Z,992.307
2019-05-30T07:14:50.206Z,992.300
2019-05-30T07:16:50.303Z,992.304
2019-05-30T07:18:50.400Z,992.301
2019-05-30T07:20:50.533Z,992.320
2019-05-30T07:22:49.678Z,992.325
2019-05-30T07:24:49.777Z,992.324
2019-05-30T07:26:50.137Z,992.342
2019-05-30T07:28:50.248Z,992.353
2019-05-30T07:30:50.453Z,992.333
2019-05-30T07:32:50.492Z,992.284
2019-05-30T07:35:07.566Z,992.287
2019-05-30T07:36:50.513Z,992.281
2019-05-30T07:38:49.596Z,992.306
2019-05-30T07:40:49.759Z,992.311
2019-05-30T07:42:49.896Z,992.323
2019-05-30T07:44:49.982Z,992.323
2019-05-30T07:46:50.219Z,992.333
2019-05-30T07:48:50.316Z,992.354
2019-05-30T07:50:50.401Z,992.334
2019-05-30T07:52:50.436Z,992.334
2019-05-30T07:54:50.530Z,992.362
2019-05-30T07:56:49.614Z,992.368
2019-05-30T07:58:49.624Z,992.394
2019-05-30T08:00:49.670Z,992.437
2019-05-30T08:02:49.865Z,992.436
2019-05-30T08:04:50.448Z,992.390
2019-05-30T08:06:49.937Z,992.381
2019-05-30T08:08:49.969Z,992.370
2019-05-30T08:10:50.133Z,992.368
2019-05-30T08:12:50.176Z,992.382
2019-05-30T08:14:50.348Z,992.382
2019-05-30T08:16:49.605Z,992.356
2019-05-30T08:18:49.787Z,992.364
2019-05-30T08:20:49.763Z,992.338
2019-05-30T08:22:49.873Z,992.338
2019-05-30T08:24:49.962Z,992.338
2019-05-30T08:26:50.235Z,992.301
2019-05-30T08:28:50.402Z,992.289
2019-05-30T08:30:50.470Z,992.264
2019-05-30T08:32:50.522Z,992.233
2019-05-30T08:34:50.167Z,992.255
2019-05-30T08:36:50.336Z,992.266
2019-05-30T08:38:50.466Z,992.234
2019-05-30T08:40:50.562Z,992.223
2019-05-30T08:42:50.621Z,992.224
2019-05-30T08:44:49.788Z,992.222
2019-05-30T08:46:50.140Z,992.216
2019-05-30T08:48:50.291Z,992.210
2019-05-30T08:50:50.394Z,992.197
2019-05-30T08:52:50.552Z,992.202
2019-05-30T08:54:49.721Z,992.206
2019-05-30T08:56:50.206Z,992.206
2019-05-30T08:58:50.324Z,992.198
2019-05-30T09:00:50.411Z,992.174
2019-05-30T09:02:50.533Z,992.156
2019-05-30T09:04:49.966Z,992.145
2019-05-30T09:06:50.115Z,992.170
2019-05-30T09:08:50.190Z,992.146
2019-05-30T09:10:50.329Z,992.143
2019-05-30T09:12:50.488Z,992.118
2019-05-30T09:14:49.604Z,992.121
2019-05-30T09:16:51.344Z,992.119
2019-05-30T09:18:49.845Z,992.114
2019-05-30T09:20:49.982Z,992.054
2019-05-30T09:22:50.092Z,992.010
2019-05-30T09:24:50.241Z,991.996
2019-05-30T09:26:50.725Z,992.021
2019-05-30T09:28:49.764Z,992.023
2019-05-30T09:30:49.903Z,992.006
2019-05-30T09:32:49.931Z,992.003
2019-05-30T09:34:50.551Z,992.006
2019-05-30T09:36:49.705Z,991.992
2019-05-30T09:38:50.004Z,991.966
2019-05-30T09:40:50.041Z,991.934
2019-05-30T09:42:50.828Z,991.930
2019-05-30T09:44:52.377Z,991.902
2019-05-30T09:46:50.798Z,991.882
2019-05-30T09:48:51.981Z,991.863
2019-05-30T09:50:51.375Z,991.855
2019-05-30T09:52:51.625Z,991.843
2019-05-30T09:54:50.518Z,991.868
2019-05-30T09:56:53.199Z,991.868
2019-05-30T09:58:51.923Z,991.871
2019-05-30T10:00:52.383Z,991.874
2019-05-30T10:02:50.844Z,991.836
2019-05-30T10:04:50.659Z,991.791
2019-05-30T10:06:50.748Z,991.766
2019-05-30T10:08:51.353Z,991.753
2019-05-30T10:10:51.592Z,991.728
2019-05-30T10:12:50.597Z,991.720
2019-05-30T10:14:51.355Z,991.708
2019-05-30T10:16:58.100Z,991.672
2019-05-30T10:18:51.024Z,991.650
2019-05-30T10:20:53.837Z,991.606
2019-05-30T10:22:53.974Z,991.609
2019-05-30T10:24:51.472Z,991.593
2019-05-30T10:26:51.197Z,991.647
2019-05-30T10:28:51.621Z,991.658
2019-05-30T10:30:59.401Z,991.649
2019-05-30T10:32:52.168Z,991.668
2019-05-30T10:34:52.345Z,991.671
2019-05-30T10:36:51.881Z,991.632
2019-05-30T10:38:52.347Z,991.632
2019-05-30T10:40:52.484Z,991.631
2019-05-30T10:42:55.178Z,991.631
2019-05-30T10:44:54.473Z,991.640
2019-05-30T10:46:54.154Z,991.623
2019-05-30T10:48:52.953Z,991.631
2019-05-30T10:50:50.797Z,991.615
2019-05-30T10:52:51.555Z,991.578
2019-05-30T10:54:51.731Z,991.517
2019-05-30T10:56:51.536Z,991.501
2019-05-30T10:58:51.054Z,991.497
2019-05-30T11:00:53.682Z,991.475
2019-05-30T11:02:52.573Z,991.452
2019-05-30T11:04:52.999Z,991.452
2019-05-30T11:07:11.554Z,991.454
2019-05-30T11:08:50.845Z,991.436
2019-05-30T11:10:50.841Z,991.409
2019-05-30T11:13:06.093Z,991.387
2019-05-30T11:14:51.666Z,991.372
2019-05-30T11:16:51.915Z,991.349
2019-05-30T11:18:54.501Z,991.310
2019-05-30T11:20:50.288Z,991.287
2019-05-30T11:22:50.358Z,991.266
2019-05-30T11:24:50.594Z,991.224
2019-05-30T11:26:55.456Z,991.224
2019-05-30T11:28:50.716Z,991.172
2019-05-30T11:30:50.834Z,991.159
2019-05-30T11:32:51.152Z,991.118
2019-05-30T11:34:51.340Z,991.095
2019-05-30T11:36:50.704Z,991.050
2019-05-30T11:38:53.828Z,990.993
2019-05-30T11:40:51.575Z,990.981
2019-05-30T11:42:49.697Z,990.967
2019-05-30T11:44:51.210Z,990.986
2019-05-30T11:46:49.640Z,991.043
2019-05-30T11:48:49.786Z,990.991
2019-05-30T11:50:52.165Z,990.943
2019-05-30T11:52:50.044Z,990.915
2019-05-30T11:54:50.168Z,990.954
2019-05-30T11:56:50.334Z,990.915
2019-05-30T11:58:50.330Z,990.855
2019-05-30T12:00:50.464Z,990.844
2019-05-30T12:02:50.452Z,990.840
2019-05-30T12:04:50.739Z,990.833
2019-05-30T12:06:53.200Z,990.817
2019-05-30T12:08:50.867Z,990.826
2019-05-30T12:10:51.325Z,990.845
2019-05-30T12:12:51.396Z,990.877
2019-05-30T12:14:51.455Z,990.854
2019-05-30T12:16:51.343Z,990.805
2019-05-30T12:18:51.599Z,990.796
2019-05-30T12:20:49.690Z,990.851
2019-05-30T12:22:49.830Z,990.796
2019-05-30T12:24:49.981Z,990.803
2019-05-30T12:26:51.562Z,990.772
2019-05-30T12:28:49.880Z,990.739
2019-05-30T12:31:05.987Z,990.721
2019-05-30T12:32:49.605Z,990.700
2019-05-30T12:34:50.314Z,990.684
2019-05-30T12:36:49.613Z,990.666
2019-05-30T12:38:49.716Z,990.667
2019-05-30T12:40:49.737Z,990.644
2019-05-30T12:42:49.919Z,990.624
2019-05-30T12:44:50.298Z,990.657
2019-05-30T12:46:50.576Z,990.617
2019-05-30T12:48:49.710Z,990.608
2019-05-30T12:50:49.840Z,990.574
2019-05-30T12:52:49.973Z,990.574
2019-05-30T12:54:50.034Z,990.667
2019-05-30T12:56:50.250Z,990.672
2019-05-30T12:58:50.341Z,990.635
2019-05-30T13:00:50.427Z,990.615
2019-05-30T13:02:50.549Z,990.631
2019-05-30T13:04:50.057Z,990.632
2019-05-30T13:06:57.366Z,990.591
2019-05-30T13:08:50.397Z,990.607
2019-05-30T13:10:50.519Z,990.612
2019-05-30T13:12:49.679Z,990.570
2019-05-30T13:14:49.840Z,990.600
2019-05-30T13:16:50.149Z,990.580
2019-05-30T13:18:50.315Z,990.570
2019-05-30T13:20:50.461Z,990.601
2019-05-30T13:22:50.510Z,990.573
2019-05-30T13:24:49.652Z,990.553
2019-05-30T13:26:49.893Z,990.542
2019-05-30T13:28:49.939Z,990.542
2019-05-30T13:30:50.056Z,990.537
2019-05-30T13:32:50.298Z,990.566
2019-05-30T13:34:49.846Z,990.593
2019-05-30T13:36:50.140Z,990.596
2019-05-30T13:38:50.186Z,990.550
2019-05-30T13:40:50.292Z,990.550
2019-05-30T13:42:50.445Z,990.472
2019-05-30T13:44:50.495Z,990.437
2019-05-30T13:46:49.840Z,990.431
2019-05-30T13:48:49.946Z,990.393
2019-05-30T13:50:50.179Z,990.378
2019-05-30T13:52:50.359Z,990.329
2019-05-30T13:54:50.416Z,990.337
2019-05-30T13:56:50.635Z,990.336
2019-05-30T13:58:49.660Z,990.374
2019-05-30T14:00:49.850Z,990.382
2019-05-30T14:02:49.891Z,990.308
2019-05-30T14:04:50.392Z,990.290
2019-05-30T14:06:50.623Z,990.253
2019-05-30T14:08:51.015Z,990.257
2019-05-30T14:10:50.149Z,990.247
2019-05-30T14:12:50.202Z,990.260
2019-05-30T14:14:50.370Z,990.257
2019-05-30T14:16:50.525Z,990.264
2019-05-30T14:18:49.664Z,990.308
2019-05-30T14:20:49.718Z,990.308
2019-05-30T14:22:49.996Z,990.338
2019-05-30T14:24:50.113Z,990.364
2019-05-30T14:26:50.288Z,990.358
2019-05-30T14:28:50.383Z,990.346
2019-05-30T14:30:50.416Z,990.361
2019-05-30T14:32:49.833Z,990.379
2019-05-30T14:34:50.179Z,990.369
2019-05-30T14:36:50.356Z,990.349
2019-05-30T14:38:59.272Z,990.320
2019-05-30T14:40:50.379Z,990.271
2019-05-30T14:42:49.601Z,990.280
2019-05-30T14:44:51.039Z,990.346
2019-05-30T14:46:50.211Z,990.322
2019-05-30T14:48:50.297Z,990.309
2019-05-30T14:50:50.476Z,990.309
2019-05-30T14:52:50.570Z,990.337
2019-05-30T14:54:49.603Z,990.332
2019-05-30T14:56:49.948Z,990.299
2019-05-30T14:58:50.118Z,990.257
2019-05-30T15:00:50.199Z,990.239
2019-05-30T15:02:50.260Z,990.218
2019-05-30T15:04:49.954Z,990.207
2019-05-30T15:06:50.219Z,990.225
2019-05-30T15:08:50.284Z,990.262
2019-05-30T15:10:50.359Z,990.262
2019-05-30T15:12:50.423Z,990.241
2019-05-30T15:14:50.520Z,990.228
2019-05-30T15:16:49.790Z,990.220
2019-05-30T15:18:49.887Z,990.194
2019-05-30T15:20:50.027Z,990.167
2019-05-30T15:22:50.072Z,990.192
2019-05-30T15:24:50.105Z,990.193
2019-05-30T15:26:50.252Z,990.163
2019-05-30T15:28:50.331Z,990.150
2019-05-30T15:30:50.461Z,990.150
2019-05-30T15:32:50.521Z,990.162
2019-05-30T15:34:50.111Z,990.160
2019-05-30T15:36:50.372Z,990.168
2019-05-30T15:38:50.460Z,990.165
2019-05-30T15:40:49.731Z,990.140
2019-05-30T15:42:53.405Z,990.145
2019-05-30T15:44:50.527Z,990.098
2019-05-30T15:46:49.667Z,990.089
2019-05-30T15:48:49.814Z,990.081
2019-05-30T15:50:49.963Z,990.071
2019-05-30T15:52:50.044Z,990.087
2019-05-30T15:54:50.267Z,990.094
2019-05-30T15:56:50.537Z,990.104
2019-05-30T15:58:49.625Z,990.096
2019-05-30T16:00:49.721Z,990.085
2019-05-30T16:02:50.038Z,990.083
2019-05-30T16:04:49.651Z,990.064
2019-05-30T16:06:49.893Z,990.065
2019-05-30T16:08:50.007Z,990.070
2019-05-30T16:10:50.147Z,990.125
2019-05-30T16:12:50.256Z,990.121
2019-05-30T16:14:50.409Z,990.120
2019-05-30T16:16:49.654Z,990.128
2019-05-30T16:18:49.685Z,990.128
2019-05-30T16:20:49.816Z,990.092
2019-05-30T16:22:49.887Z,990.055
2019-05-30T16:24:49.987Z,990.064
2019-05-30T16:26:50.250Z,990.094
2019-05-30T16:28:50.321Z,990.058
2019-05-30T16:30:50.478Z,990.040
2019-05-30T16:32:50.522Z,990.014
2019-05-30T16:34:50.359Z,990.013
2019-05-30T16:36:50.442Z,990.006
2019-05-30T16:38:50.592Z,989.995
2019-05-30T16:40:50.606Z,989.992
2019-05-30T16:42:49.780Z,990.020
2019-05-30T16:44:49.776Z,990.039
2019-05-30T16:46:50.027Z,990.033
2019-05-30T16:48:50.153Z,990.039
2019-05-30T16:50:50.261Z,990.051
2019-05-30T16:52:50.361Z,990.062
2019-05-30T16:54:50.507Z,990.070
2019-05-30T16:56:49.765Z,990.081
2019-05-30T16:58:49.863Z,990.082
2019-05-30T17:00:49.990Z,990.099
2019-05-30T17:02:50.111Z,990.119
2019-05-30T17:04:49.750Z,990.105
2019-05-30T17:06:49.935Z,990.092
2019-05-30T17:08:49.994Z,990.083
2019-05-30T17:10:50.150Z,990.101
2019-05-30T17:12:50.246Z,990.101
2019-05-30T17:14:50.406Z,990.138
2019-05-30T17:16:49.795Z,990.157
2019-05-30T17:18:49.913Z,990.152
2019-05-30T17:20:50.152Z,990.154
2019-05-30T17:22:50.257Z,990.164
2019-05-30T17:24:50.335Z,990.159
2019-05-30T17:26:52.311Z,990.164
2019-05-30T17:28:50.393Z,990.153
2019-05-30T17:30:50.478Z,990.154
2019-05-30T17:32:50.489Z,990.171
2019-05-30T17:34:50.249Z,990.184
2019-05-30T17:36:50.492Z,990.195
2019-05-30T17:38:50.531Z,990.204
2019-05-30T17:40:50.006Z,990.188
2019-05-30T17:42:50.069Z,990.187
2019-05-30T17:44:50.121Z,990.189
2019-05-30T17:46:50.437Z,990.201
2019-05-30T17:48:50.512Z,990.225
2019-05-30T17:50:50.588Z,990.242
2019-05-30T17:52:49.626Z,990.257
2019-05-30T17:54:49.733Z,990.287
2019-05-30T17:56:50.034Z,990.305
2019-05-30T17:58:50.177Z,990.326
2019-05-30T18:00:50.348Z,990.330
2019-05-30T18:02:50.513Z,990.340
2019-05-30T18:04:50.186Z,990.339
2019-05-30T18:06:50.400Z,990.339
2019-05-30T18:08:50.500Z,990.340
2019-05-30T18:10:54.442Z,990.344
2019-05-30T18:12:50.523Z,990.356
2019-05-30T18:14:50.573Z,990.373
2019-05-30T18:16:49.714Z,990.402
2019-05-30T18:18:49.822Z,990.428
2019-05-30T18:20:49.855Z,990.440
2019-05-30T18:22:49.941Z,990.440
2019-05-30T18:24:50.036Z,990.451
2019-05-30T18:26:50.287Z,990.456
2019-05-30T18:28:50.365Z,990.466
2019-05-30T18:30:50.474Z,990.489
2019-05-30T18:32:49.660Z,990.501
2019-05-30T18:34:50.195Z,990.509
2019-05-30T18:36:50.511Z,990.491
2019-05-30T18:38:50.635Z,990.494
2019-05-30T18:40:49.732Z,990.489
2019-05-30T18:42:49.878Z,990.492
2019-05-30T18:44:49.943Z,990.479
2019-05-30T18:46:50.184Z,990.475
2019-05-30T18:48:50.230Z,990.477
2019-05-30T18:50:50.292Z,990.482
2019-05-30T18:52:50.407Z,990.475
2019-05-30T18:54:50.600Z,990.455
2019-05-30T18:56:49.706Z,990.458
2019-05-30T18:58:49.804Z,990.457
2019-05-30T19:00:49.868Z,990.467
2019-05-30T19:02:49.832Z,990.474
2019-05-30T19:04:50.314Z,990.487
2019-05-30T19:06:50.482Z,990.490
2019-05-30T19:08:50.557Z,990.484
2019-05-30T19:10:49.697Z,990.483
2019-05-30T19:12:49.839Z,990.480
2019-05-30T19:14:49.869Z,990.496
2019-05-30T19:16:50.179Z,990.515
2019-05-30T19:18:50.251Z,990.538
2019-05-30T19:20:50.200Z,990.546
2019-05-30T19:22:50.249Z,990.567
2019-05-30T19:24:50.333Z,990.593
2019-05-30T19:26:50.591Z,990.633
2019-05-30T19:28:49.669Z,990.652
2019-05-30T19:30:49.745Z,990.680
2019-05-30T19:32:49.757Z,990.711
2019-05-30T19:34:50.300Z,990.732
2019-05-30T19:36:50.448Z,990.762
2019-05-30T19:38:50.543Z,990.776
2019-05-30T19:40:50.719Z,990.799
2019-05-30T19:42:49.832Z,990.827
2019-05-30T19:44:49.894Z,990.853
2019-05-30T19:46:50.163Z,990.868
2019-05-30T19:48:50.276Z,990.883
2019-05-30T19:50:50.380Z,990.910
2019-05-30T19:52:50.562Z,990.910
2019-05-30T19:54:49.820Z,990.899
2019-05-30T19:56:50.194Z,990.912
2019-05-30T19:58:50.320Z,990.924
2019-05-30T20:00:59.377Z,990.934
2019-05-30T20:02:50.454Z,990.935
2019-05-30T20:04:50.020Z,990.940
2019-05-30T20:06:50.296Z,990.940
2019-05-30T20:08:56.265Z,990.958
2019-05-30T20:10:50.377Z,990.949
2019-05-30T20:12:50.492Z,990.951
2019-05-30T20:14:50.572Z,990.961
2019-05-30T20:16:49.721Z,990.957
2019-05-30T20:18:49.843Z,990.961
2019-05-30T20:20:58.372Z,990.957
2019-05-30T20:22:50.482Z,990.956
2019-05-30T20:24:50.545Z,990.950
2019-05-30T20:26:49.857Z,990.955
2019-05-30T20:28:49.874Z,990.956
2019-05-30T20:30:49.961Z,990.942
2019-05-30T20:32:50.134Z,990.950
2019-05-30T20:34:49.666Z,990.962
2019-05-30T20:36:49.954Z,990.971
2019-05-30T20:38:50.041Z,991.003
2019-05-30T20:40:50.250Z,991.013
2019-05-30T20:42:50.326Z,991.005
2019-05-30T20:44:50.355Z,991.021
2019-05-30T20:46:49.641Z,991.016
2019-05-30T20:48:49.654Z,991.014
2019-05-30T20:50:49.761Z,991.013
2019-05-30T20:52:49.837Z,991.001
2019-05-30T20:54:49.829Z,990.996
2019-05-30T20:56:52.113Z,991.036
2019-05-30T20:58:50.260Z,991.045
2019-05-30T21:00:50.335Z,991.062
2019-05-30T21:02:50.377Z,991.073
2019-05-30T21:04:49.985Z,991.115
2019-05-30T21:06:50.236Z,991.123
2019-05-30T21:08:50.429Z,991.136
2019-05-30T21:10:50.538Z,991.140
2019-05-30T21:12:49.842Z,991.140
2019-05-30T21:14:50.015Z,991.150
2019-05-30T21:16:50.256Z,991.168
2019-05-30T21:18:50.473Z,991.181
2019-05-30T21:20:49.667Z,991.191
2019-05-30T21:22:49.772Z,991.176
2019-05-30T21:24:49.864Z,991.158
2019-05-30T21:26:50.155Z,991.159
2019-05-30T21:28:50.213Z,991.153
2019-05-30T21:30:50.399Z,991.153
2019-05-30T21:32:51.000Z,991.153
2019-05-30T21:34:50.947Z,991.179
2019-05-30T21:36:50.003Z,991.192
2019-05-30T21:38:50.116Z,991.209
2019-05-30T21:40:50.258Z,991.209
2019-05-30T21:43:07.366Z,991.206
2019-05-30T21:44:53.142Z,991.200
2019-05-30T21:46:50.359Z,991.193
2019-05-30T21:48:50.451Z,991.190
2019-05-30T21:50:50.511Z,991.184
2019-05-30T21:52:50.544Z,991.186
2019-05-30T21:54:50.599Z,991.201
2019-05-30T21:56:50.559Z,991.209
2019-05-30T21:58:50.686Z,991.218
2019-05-30T22:00:51.205Z,991.221
2019-05-30T22:02:51.023Z,991.240
2019-05-30T22:04:50.963Z,991.257
2019-05-30T22:06:51.266Z,991.253
2019-05-30T22:08:51.736Z,991.261
2019-05-30T22:10:49.855Z,991.259
2019-05-30T22:12:49.985Z,991.248
2019-05-30T22:14:50.091Z,991.244
2019-05-30T22:16:50.561Z,991.257
2019-05-30T22:18:50.411Z,991.262
2019-05-30T22:20:50.476Z,991.270
2019-05-30T22:22:50.498Z,991.288
2019-05-30T22:24:50.641Z,991.293
2019-05-30T22:26:50.955Z,991.315
2019-05-30T22:28:50.749Z,991.321
2019-05-30T22:30:50.810Z,991.348
2019-05-30T22:32:50.988Z,991.359
2019-05-30T22:34:51.098Z,991.357
2019-05-30T22:36:51.207Z,991.338
2019-05-30T22:38:51.246Z,991.333
2019-05-30T22:40:50.275Z,991.332
2019-05-30T22:42:50.413Z,991.332
2019-05-30T22:44:50.497Z,991.331
2019-05-30T22:46:50.495Z,991.332
2019-05-30T22:48:50.714Z,991.323
2019-05-30T22:50:50.934Z,991.304
2019-05-30T22:52:51.097Z,991.312
2019-05-30T22:54:51.404Z,991.308
2019-05-30T22:56:51.700Z,991.311
2019-05-30T22:58:51.806Z,991.297
2019-05-30T23:00:50.225Z,991.300
2019-05-30T23:02:50.275Z,991.297
2019-05-30T23:04:50.410Z,991.299
2019-05-30T23:06:50.590Z,991.289
2019-05-30T23:08:50.832Z,991.279
2019-05-30T23:10:49.923Z,991.280
2019-05-30T23:12:49.972Z,991.268
2019-05-30T23:14:50.308Z,991.270
2019-05-30T23:16:50.880Z,991.251
2019-05-30T23:18:50.608Z,991.247
2019-05-30T23:20:50.820Z,991.235
2019-05-30T23:22:51.150Z,991.225
2019-05-30T23:24:55.199Z,991.201
2019-05-30T23:26:49.795Z,991.193
2019-05-30T23:28:49.935Z,991.187
2019-05-30T23:30:50.072Z,991.193
2019-05-30T23:32:50.702Z,991.191
2019-05-30T23:34:50.597Z,991.192
2019-05-30T23:36:50.709Z,991.185
2019-05-30T23:38:50.977Z,991.180
2019-05-30T23:40:51.248Z,991.173
2019-05-30T23:42:51.205Z,991.171
2019-05-30T23:44:51.447Z,991.148
2019-05-30T23:46:49.675Z,991.145
2019-05-30T23:48:49.822Z,991.135
2019-05-30T23:50:49.988Z,991.114
2019-05-30T23:52:50.317Z,991.111
2019-05-30T23:54:50.325Z,991.117
2019-05-30T23:56:50.778Z,991.131
2019-05-30T23:58:50.811Z,991.124
